Etusivu
METAR-TAF:

METAR-TAF

Lentoasemat :

Houston, Texas, Yhdysvallat

Leveyspiiri: 29-30-22N, Pituuspiiri: 095-28-37W, korkeus merenpinnasta: 21 m

Tämänhetkinen sää

Tämä raportti tehtiin 19 minuuttia sitten, kello 10.55 UTC
Tuuli 6 kn pohjoisesta/koillisesta
Lämpötila 24°C
Kosteus 89%
Ilmanpaine 1014 hPa
Näkyvyys: 16.1 km
selkeää

METAR: KAXH 181055Z AUTO 03006KT 10SM CLR 24/22 A2994 RMK AO2 T02370220

Aika: 05:14 (11:14 UTC)


TAF: puuttuu

Säähavainnot ja -ennusteet yli 4000 lentoasemalta (METAR- ja TAF-raportit).

Käytössä olevat sääasemat on merkitty karttaan keltaisilla ja punaisilla pisteillä.

Aseta hiiri pisteen päälle nähdäksesi sääaseman nimen.

Klikkaa sitten nähdäksesi säähavainnot ja -ennusteet.

Kartan vaihtaminen: klikkaa mustalla rastilla varustettuja vihreitä pisteitä, niin voit zoomata sisään; viivalla varustettua vihreää pistettä, niin voit zoomata ulos tai vihreitä nuolia, niin pääset viereisille kartoille.


METAR-TAF: